Time;durP1;ratioP1;P1;durP2;ratioP2;P2;SDS_P1;SDS_P2;PMS_P1;PMS_P2;Temp;Humidity;BMP_temperature;BMP_pressure;BME280_temperature;BME280_humidity;BME280_pressure;Samples;Min_cycle;Max_cycle;Signal;HPM_P1;HPM_P2
2023/07/25 00:01:21;;;;;;;0.20;0.20;;;;;;;15.02;98.16;98553.91;5046842;28;20021;-62
2023/07/25 00:03:47;;;;;;;0.20;0.20;;;;;;;15.04;97.92;98559.06;5046354;28;20026;-62
2023/07/25 00:06:13;;;;;;;0.20;0.20;;;;;;;14.98;97.41;98552.41;5046613;28;20447;-62
2023/07/25 00:08:38;;;;;;;0.20;0.20;;;;;;;14.95;97.76;98547.38;5046365;28;20068;-62
2023/07/25 00:11:04;;;;;;;0.30;0.30;;;;;;;14.94;97.85;98548.28;5045808;28;20081;-62
2023/07/25 00:13:30;;;;;;;0.20;0.20;;;;;;;14.98;98.62;98549.81;5046298;28;20049;-62
2023/07/25 00:15:56;;;;;;;0.20;0.20;;;;;;;14.95;98.08;98544.75;5046039;28;20023;-61
2023/07/25 00:18:21;;;;;;;0.20;0.20;;;;;;;14.93;98.21;98544.84;5046258;28;20396;-62
2023/07/25 00:20:47;;;;;;;0.20;0.20;;;;;;;14.90;97.80;98552.00;5046571;28;20045;-62
2023/07/25 00:23:12;;;;;;;0.20;0.20;;;;;;;14.90;97.72;98546.78;5046137;28;20040;-62
2023/07/25 00:25:38;;;;;;;0.20;0.20;;;;;;;14.84;97.84;98542.75;5046188;28;20469;-61
2023/07/25 00:28:03;;;;;;;0.20;0.20;;;;;;;14.80;97.31;98560.34;5046388;28;20049;-62
2023/07/25 00:30:29;;;;;;;0.20;0.20;;;;;;;14.75;97.12;98563.19;5045929;28;20272;-61
2023/07/25 00:32:54;;;;;;;0.20;0.20;;;;;;;14.73;96.98;98558.97;5046169;28;20021;-62
2023/07/25 00:35:19;;;;;;;0.20;0.20;;;;;;;14.70;97.00;98566.97;5045941;28;20017;-62
2023/07/25 00:37:45;;;;;;;0.20;0.20;;;;;;;14.69;96.86;98558.31;5045798;28;20033;-63
2023/07/25 00:40:11;;;;;;;0.32;0.32;;;;;;;14.63;97.01;98562.09;5046032;28;20025;-62
2023/07/25 00:42:36;;;;;;;0.20;0.20;;;;;;;14.66;97.02;98553.25;5045480;28;20072;-62
2023/07/25 00:45:02;;;;;;;0.20;0.20;;;;;;;14.64;97.13;98557.72;5045807;28;20036;-62
2023/07/25 00:47:27;;;;;;;0.20;0.20;;;;;;;14.75;97.50;98570.19;5045825;28;20022;-62
2023/07/25 00:49:54;;;;;;;0.40;0.40;;;;;;;14.70;97.08;98551.31;5045687;28;20030;-63
2023/07/25 00:52:19;;;;;;;0.20;0.20;;;;;;;14.74;97.14;98558.06;5045769;28;20085;-62
2023/07/25 00:54:50;;;;;;;0.20;0.20;;;;;;;14.77;96.83;98559.63;5045274;28;20021;-61
2023/07/25 00:57:17;;;;;;;0.43;0.43;;;;;;;14.75;97.17;98562.34;5045440;28;20389;-62
2023/07/25 00:59:43;;;;;;;0.20;0.20;;;;;;;14.75;96.88;98559.72;5045471;28;20056;-62
2023/07/25 01:02:09;;;;;;;0.22;0.22;;;;;;;14.69;97.01;98555.69;5045282;28;20025;-62
2023/07/25 01:04:36;;;;;;;0.20;0.20;;;;;;;14.79;97.36;98563.03;5045455;28;20029;-62
2023/07/25 01:07:02;;;;;;;0.20;0.20;;;;;;;14.85;97.35;98568.78;5045009;28;20032;-62
2023/07/25 01:09:45;;;;;;;0.20;0.20;;;;;;;14.80;96.56;98560.34;5044872;28;20480;-62
2023/07/25 01:12:11;;;;;;;0.20;0.20;;;;;;;14.77;96.69;98568.34;5045060;28;20037;-62
2023/07/25 01:14:38;;;;;;;0.20;0.20;;;;;;;14.80;96.89;98570.81;5045147;28;20049;-62
2023/07/25 01:17:12;;;;;;;0.20;0.20;;;;;;;14.80;97.00;98568.19;5045111;28;20060;-61
2023/07/25 01:19:41;;;;;;;0.20;0.20;;;;;;;14.77;96.94;98573.56;5045098;28;20512;-62
2023/07/25 01:22:08;;;;;;;0.20;0.20;;;;;;;14.75;96.78;98578.00;5044333;28;20029;-63
2023/07/25 01:24:35;;;;;;;0.40;0.40;;;;;;;14.79;97.26;98578.69;5045150;28;20417;-62
2023/07/25 01:27:02;;;;;;;0.20;0.20;;;;;;;14.73;96.83;98569.41;5044951;28;20056;-61
2023/07/25 01:29:28;;;;;;;0.20;0.20;;;;;;;14.81;96.90;98569.88;5044824;28;20029;-63
2023/07/25 01:31:53;;;;;;;0.20;0.20;;;;;;;14.83;97.20;98565.41;5044704;28;20079;-62
2023/07/25 01:34:19;;;;;;;0.20;0.20;;;;;;;14.84;97.50;98564.47;5044548;28;20053;-62
2023/07/25 01:36:44;;;;;;;0.20;0.20;;;;;;;14.81;97.34;98567.25;5045017;28;20017;-62
2023/07/25 01:39:10;;;;;;;0.20;0.20;;;;;;;14.77;96.03;98568.34;5044621;28;20470;-62
2023/07/25 01:41:35;;;;;;;0.30;0.30;;;;;;;14.73;95.94;98559.81;5044465;28;20092;-63
2023/07/25 01:44:00;;;;;;;0.20;0.20;;;;;;;14.73;95.66;98567.66;5044208;28;20021;-62
2023/07/25 01:46:26;;;;;;;0.20;0.20;;;;;;;14.70;95.32;98564.34;5044148;28;20168;-62
2023/07/25 01:48:51;;;;;;;0.20;0.20;;;;;;;14.69;95.30;98560.06;5044539;28;20466;-61
2023/07/25 01:51:17;;;;;;;0.32;0.32;;;;;;;14.68;95.45;98569.66;5044338;28;20045;-61
2023/07/25 01:53:42;;;;;;;0.20;0.20;;;;;;;14.61;95.69;98560.50;5044865;28;20045;-62
2023/07/25 01:56:07;;;;;;;0.20;0.20;;;;;;;14.57;95.55;98565.03;5044273;28;20028;-62
2023/07/25 01:58:33;;;;;;;0.20;0.20;;;;;;;14.58;95.74;98574.56;5044487;28;20484;-62
2023/07/25 02:00:59;;;;;;;0.20;0.20;;;;;;;14.60;95.94;98569.28;5044349;28;20021;-62
2023/07/25 02:03:26;;;;;;;0.20;0.20;;;;;;;14.63;96.29;98572.53;5044149;28;20441;-63
2023/07/25 02:05:51;;;;;;;0.50;0.50;;;;;;;14.66;96.61;98571.53;5044434;28;20065;-63
2023/07/25 02:08:17;;;;;;;0.20;0.20;;;;;;;14.69;96.97;98567.91;5044530;28;20076;-62
2023/07/25 02:10:42;;;;;;;0.20;0.20;;;;;;;14.70;97.21;98566.97;5044331;28;20032;-61
2023/07/25 02:13:08;;;;;;;0.30;0.30;;;;;;;14.70;97.16;98567.81;5044727;28;20044;-61
2023/07/25 02:15:34;;;;;;;0.20;0.20;;;;;;;14.73;96.92;98564.19;5044258;28;20069;-62
2023/07/25 02:18:00;;;;;;;0.20;0.20;;;;;;;14.73;97.41;98559.81;5044424;28;20704;-62
2023/07/25 02:20:27;;;;;;;0.30;0.30;;;;;;;14.75;97.88;98562.34;5044500;28;20045;-61
2023/07/25 02:22:52;;;;;;;3.58;1.90;;;;;;;14.72;97.54;98554.69;5044530;28;20076;-62
2023/07/25 02:25:17;;;;;;;0.20;0.20;;;;;;;14.79;97.44;98563.88;5043391;28;20033;-61
2023/07/25 02:27:43;;;;;;;0.20;0.20;;;;;;;14.78;97.93;98562.16;5044335;28;20054;-61
2023/07/25 02:30:09;;;;;;;0.20;0.20;;;;;;;14.80;97.80;98564.72;5044745;28;20029;-62
2023/07/25 02:32:34;;;;;;;0.30;0.30;;;;;;;14.80;97.70;98560.34;5044422;28;20021;-62
2023/07/25 02:34:59;;;;;;;0.22;0.22;;;;;;;14.86;98.46;98554.78;5046857;28;20029;-61
2023/07/25 02:37:25;;;;;;;0.20;0.20;;;;;;;14.90;98.01;98555.47;5048046;28;20027;-61
2023/07/25 02:39:50;;;;;;;0.30;0.30;;;;;;;14.90;98.00;98552.84;5048313;28;20052;-62
2023/07/25 02:42:15;;;;;;;0.20;0.20;;;;;;;14.94;98.17;98559.56;5047759;28;20021;-62
2023/07/25 02:44:41;;;;;;;0.20;0.20;;;;;;;14.91;97.71;98557.13;5048026;28;20163;-61
2023/07/25 02:47:06;;;;;;;10.13;3.30;;;;;;;14.96;98.24;98556.88;5048324;28;20021;-60
2023/07/25 02:49:32;;;;;;;0.20;0.20;;;;;;;14.97;98.19;98562.00;5047746;28;20381;-61
2023/07/25 02:51:57;;;;;;;0.20;0.20;;;;;;;14.96;98.34;98562.94;5048064;28;20022;-62
2023/07/25 02:54:22;;;;;;;0.20;0.20;;;;;;;14.95;98.43;98553.41;5047793;28;20033;-61
2023/07/25 02:56:48;;;;;;;0.30;0.30;;;;;;;14.98;98.38;98568.09;5048142;28;20026;-62
2023/07/25 02:59:13;;;;;;;0.20;0.20;;;;;;;15.01;98.34;98567.06;5047713;28;20030;-61
2023/07/25 03:01:38;;;;;;;0.20;0.20;;;;;;;15.01;98.90;98559.22;5047664;28;20035;-63
2023/07/25 03:04:04;;;;;;;2.40;0.90;;;;;;;15.03;98.69;98568.66;5047878;28;20051;-61
2023/07/25 03:06:29;;;;;;;0.20;0.20;;;;;;;15.00;98.35;98563.59;5047536;28;20028;-62
2023/07/25 03:08:55;;;;;;;1.05;1.05;;;;;;;15.01;98.16;98567.91;5047759;28;20021;-61
2023/07/25 03:11:20;;;;;;;0.22;0.22;;;;;;;14.96;97.98;98560.34;5047551;28;20026;-61
2023/07/25 03:13:46;;;;;;;0.20;0.20;;;;;;;14.94;98.01;98556.97;5047646;28;20041;-61
2023/07/25 03:16:11;;;;;;;0.20;0.20;;;;;;;14.92;97.99;98553.59;5047475;28;20025;-62
2023/07/25 03:18:38;;;;;;;0.20;0.20;;;;;;;14.94;98.10;98556.09;5047721;28;20038;-62
2023/07/25 03:21:03;;;;;;;2.45;2.25;;;;;;;14.89;97.91;98547.72;5047737;28;20095;-60
2023/07/25 03:23:29;;;;;;;0.20;0.20;;;;;;;14.91;97.75;98548.44;5047364;28;20029;-62
2023/07/25 03:25:55;;;;;;;0.30;0.30;;;;;;;14.93;97.11;98554.44;5047473;28;20025;-61
2023/07/25 03:28:20;;;;;;;0.20;0.20;;;;;;;14.95;97.37;98565.66;5047325;28;20041;-61
2023/07/25 03:30:46;;;;;;;0.52;0.52;;;;;;;14.97;97.77;98561.16;5047091;28;20032;-62
2023/07/25 03:33:11;;;;;;;0.30;0.30;;;;;;;14.94;96.85;98563.94;5047652;28;20017;-62
2023/07/25 03:35:36;;;;;;;0.20;0.20;;;;;;;14.92;96.55;98558.00;5047409;28;20033;-62
2023/07/25 03:38:02;;;;;;;1.40;1.40;;;;;;;14.91;96.55;98546.69;5047154;28;20025;-63
2023/07/25 03:40:27;;;;;;;0.20;0.20;;;;;;;14.99;96.77;98548.88;5047451;28;20021;-62
2023/07/25 03:42:52;;;;;;;0.20;0.20;;;;;;;15.07;97.08;98564.94;5046924;28;20025;-61
2023/07/25 03:45:18;;;;;;;0.52;0.52;;;;;;;15.08;97.04;98568.41;5047086;28;20108;-62
2023/07/25 03:47:43;;;;;;;0.30;0.30;;;;;;;14.96;96.25;98555.13;5046847;28;20034;-62
2023/07/25 03:50:09;;;;;;;1.10;1.10;;;;;;;15.00;96.36;98555.75;5047225;28;20032;-63
2023/07/25 03:52:34;;;;;;;0.22;0.22;;;;;;;15.06;96.12;98571.13;5046924;28;20029;-63
2023/07/25 03:54:59;;;;;;;0.30;0.30;;;;;;;15.07;95.92;98570.19;5047117;28;20021;-62
2023/07/25 03:57:25;;;;;;;0.30;0.30;;;;;;;14.99;95.26;98567.16;5047017;28;20037;-62
2023/07/25 03:59:50;;;;;;;0.20;0.20;;;;;;;15.02;95.30;98566.97;5047034;28;20021;-61
2023/07/25 04:02:15;;;;;;;0.20;0.20;;;;;;;15.06;95.54;98565.91;5046353;28;20017;-62
2023/07/25 04:04:41;;;;;;;0.75;0.75;;;;;;;15.07;95.40;98570.19;5046791;28;20083;-62
2023/07/25 04:07:06;;;;;;;0.20;0.20;;;;;;;15.13;95.49;98576.00;5046763;28;20037;-63
2023/07/25 04:09:32;;;;;;;0.20;0.20;;;;;;;15.15;95.50;98563.66;5046798;28;20041;-63
2023/07/25 04:11:57;;;;;;;0.20;0.20;;;;;;;15.12;94.83;98564.69;5045467;28;20031;-62
2023/07/25 04:14:23;;;;;;;0.25;0.25;;;;;;;15.18;94.61;98563.47;5046301;28;20041;-62
2023/07/25 04:16:48;;;;;;;0.20;0.20;;;;;;;15.20;94.66;98566.88;5046239;28;20516;-61
2023/07/25 04:19:14;;;;;;;0.22;0.22;;;;;;;15.20;94.06;98565.09;5046396;28;20424;-62
2023/07/25 04:21:39;;;;;;;0.20;0.20;;;;;;;15.22;94.56;98572.84;5046254;28;20471;-61
2023/07/25 04:24:05;;;;;;;0.20;0.20;;;;;;;15.28;94.56;98572.50;5046116;28;20079;-62
2023/07/25 04:26:31;;;;;;;0.20;0.20;;;;;;;15.30;94.25;98583.72;5028234;28;20033;-62
2023/07/25 04:28:56;;;;;;;0.20;0.20;;;;;;;15.28;93.75;98575.13;5044953;28;20116;-62
2023/07/25 04:31:22;;;;;;;0.20;0.20;;;;;;;15.31;93.72;98577.53;5046121;28;20024;-62
2023/07/25 04:33:47;;;;;;;0.20;0.20;;;;;;;15.31;93.67;98580.16;5046276;28;20025;-62
2023/07/25 04:36:13;;;;;;;0.47;0.47;;;;;;;15.27;93.39;98573.41;5046367;28;20367;-62
2023/07/25 04:38:38;;;;;;;0.40;0.40;;;;;;;15.31;93.01;98574.94;5046117;28;20389;-62
2023/07/25 04:41:04;;;;;;;1.08;1.00;;;;;;;15.32;92.92;98575.78;5046005;28;20030;-63
2023/07/25 04:43:29;;;;;;;1.40;1.23;;;;;;;15.32;92.41;98575.78;5046208;28;20032;-62
2023/07/25 04:45:54;;;;;;;0.20;0.20;;;;;;;15.14;92.67;98536.69;5045966;28;20053;-62
2023/07/25 04:48:20;;;;;;;2.58;2.47;;;;;;;15.44;92.29;98588.13;5045880;28;20021;-62
2023/07/25 04:50:46;;;;;;;0.20;0.20;;;;;;;15.44;92.24;98582.91;5046129;28;20030;-62
2023/07/25 04:53:11;;;;;;;0.50;0.50;;;;;;;15.52;92.44;98579.84;5045751;28;20425;-62
2023/07/25 04:55:36;;;;;;;0.20;0.20;;;;;;;15.55;92.27;98592.75;5045719;28;20089;-62
2023/07/25 04:58:02;;;;;;;6.72;2.75;;;;;;;15.55;91.97;98584.91;5045623;28;20048;-62
2023/07/25 05:00:28;;;;;;;0.20;0.20;;;;;;;15.65;92.26;98581.75;5045888;28;20030;-63
2023/07/25 05:02:53;;;;;;;1.42;1.33;;;;;;;15.71;92.63;98589.22;5045599;28;20061;-62
2023/07/25 05:05:18;;;;;;;0.30;0.30;;;;;;;15.77;92.37;98586.25;5028091;28;20041;-62
2023/07/25 05:07:44;;;;;;;0.20;0.20;;;;;;;15.73;91.67;98579.50;5045685;28;20124;-62
2023/07/25 05:10:10;;;;;;;0.40;0.40;;;;;;;15.86;90.71;98590.09;5027680;28;20589;-62
2023/07/25 05:12:35;;;;;;;1.38;1.30;;;;;;;15.90;91.10;98595.97;5044400;28;20084;-62
2023/07/25 05:15:00;;;;;;;0.77;0.77;;;;;;;15.90;90.14;98590.72;5045346;28;20029;-62
2023/07/25 05:17:26;;;;;;;0.35;0.35;;;;;;;15.96;90.38;98587.75;5045489;28;20033;-62
2023/07/25 05:19:51;;;;;;;7.25;3.63;;;;;;;16.02;90.62;98597.91;5045422;28;20025;-62
2023/07/25 05:22:16;;;;;;;0.20;0.20;;;;;;;15.98;90.08;98596.38;5044976;28;20048;-63
2023/07/25 05:24:42;;;;;;;0.20;0.20;;;;;;;15.98;90.04;98591.16;5045543;28;20068;-62
2023/07/25 05:27:07;;;;;;;0.30;0.30;;;;;;;15.98;90.44;98593.78;5044985;28;20021;-63
2023/07/25 05:29:33;;;;;;;0.30;0.30;;;;;;;16.00;91.20;98598.91;5045551;28;20025;-63
2023/07/25 05:31:59;;;;;;;0.20;0.20;;;;;;;16.02;89.50;98604.91;5045094;28;20061;-62
2023/07/25 05:34:24;;;;;;;0.20;0.20;;;;;;;16.06;90.43;98612.47;5045043;28;20025;-63
2023/07/25 05:36:49;;;;;;;0.20;0.20;;;;;;;16.10;90.74;98608.72;5044858;28;20075;-63
2023/07/25 05:39:15;;;;;;;0.20;0.20;;;;;;;16.10;89.58;98606.09;5045362;28;20034;-62
2023/07/25 05:41:42;;;;;;;0.60;0.60;;;;;;;16.18;89.67;98612.69;5045168;28;20093;-62
2023/07/25 05:44:08;;;;;;;0.20;0.20;;;;;;;16.15;87.98;98610.25;5045021;28;20017;-63
2023/07/25 05:46:33;;;;;;;0.20;0.20;;;;;;;16.13;87.90;98627.81;5044894;28;20089;-62
2023/07/25 05:48:59;;;;;;;0.20;0.20;;;;;;;16.14;87.79;98617.25;5044879;28;20025;-62
2023/07/25 05:51:24;;;;;;;1.00;1.00;;;;;;;16.14;87.78;98622.47;5045268;28;20037;-63
2023/07/25 05:53:49;;;;;;;0.88;0.85;;;;;;;16.15;86.34;98620.72;5044815;28;20024;-63
2023/07/25 05:56:15;;;;;;;0.20;0.20;;;;;;;16.14;87.42;98616.41;5045180;28;20021;-62
2023/07/25 05:58:40;;;;;;;0.30;0.30;;;;;;;16.19;86.69;98616.97;5044922;28;20102;-62
2023/07/25 06:01:06;;;;;;;0.20;0.20;;;;;;;16.22;85.72;98617.63;5044759;28;20033;-62
2023/07/25 06:03:31;;;;;;;0.30;0.30;;;;;;;16.24;87.05;98628.00;5044798;28;20075;-63
2023/07/25 06:05:57;;;;;;;1.65;1.65;;;;;;;16.22;85.77;98632.47;5044624;28;20021;-63
2023/07/25 06:08:22;;;;;;;33.05;2.72;;;;;;;16.20;85.07;98629.09;5045082;28;20029;-62
2023/07/25 06:10:47;;;;;;;0.20;0.20;;;;;;;16.29;86.47;98633.81;5048695;28;20049;-62
2023/07/25 06:13:13;;;;;;;0.20;0.20;;;;;;;16.31;86.04;98631.09;5030877;28;20064;-63
2023/07/25 06:15:38;;;;;;;0.20;0.20;;;;;;;16.28;84.52;98632.09;5048368;28;20021;-63
2023/07/25 06:18:04;;;;;;;0.20;0.20;;;;;;;16.32;84.16;98635.38;5048501;28;20108;-63
2023/07/25 06:20:32;;;;;;;0.20;0.20;;;;;;;16.38;84.15;98632.41;5047547;28;20025;-63
2023/07/25 06:22:58;;;;;;;0.40;0.38;;;;;;;16.37;82.50;98627.25;5048137;28;20025;-62
2023/07/25 06:25:23;;;;;;;0.20;0.20;;;;;;;16.41;82.02;98632.22;5048653;28;20127;-63
2023/07/25 06:27:49;;;;;;;1.83;1.75;;;;;;;16.43;83.59;98627.72;5048271;28;20442;-62
2023/07/25 06:30:14;;;;;;;0.43;0.35;;;;;;;16.48;82.72;98630.06;5048407;28;20026;-63
2023/07/25 06:32:39;;;;;;;0.20;0.20;;;;;;;16.46;81.83;98622.28;5048618;28;20021;-62
2023/07/25 06:35:05;;;;;;;0.22;0.22;;;;;;;16.62;82.63;98633.59;5048315;28;20029;-63
2023/07/25 06:37:36;;;;;;;0.20;0.20;;;;;;;16.73;82.45;98620.66;5048251;28;20032;-63
2023/07/25 06:40:01;;;;;;;0.20;0.20;;;;;;;16.85;81.70;98627.75;5048341;28;20052;-63
2023/07/25 06:42:30;;;;;;;0.20;0.20;;;;;;;16.90;80.83;98624.00;5048291;28;20037;-63
2023/07/25 06:44:56;;;;;;;0.30;0.30;;;;;;;16.98;80.54;98630.44;5046930;28;20025;-63
2023/07/25 06:47:21;;;;;;;0.20;0.20;;;;;;;17.06;78.13;98622.06;5046887;28;20052;-63
2023/07/25 06:49:47;;;;;;;0.20;0.20;;;;;;;17.21;77.71;98630.78;5048301;28;20025;-62
2023/07/25 06:52:12;;;;;;;0.20;0.20;;;;;;;17.32;78.60;98627.44;5047759;28;20029;-62
2023/07/25 06:54:39;;;;;;;0.28;0.28;;;;;;;17.42;79.91;98637.34;5048219;28;20041;-63
2023/07/25 06:57:04;;;;;;;0.20;0.20;;;;;;;17.49;78.72;98630.75;5047921;28;20030;-63
2023/07/25 06:59:30;;;;;;;0.20;0.20;;;;;;;17.78;76.71;98627.13;5047971;28;20032;-62
2023/07/25 07:01:56;;;;;;;0.20;0.20;;;;;;;18.16;78.73;98630.75;5048095;28;20089;-63
2023/07/25 07:04:21;;;;;;;0.40;0.40;;;;;;;18.36;77.77;98637.25;5047220;28;20482;-63
2023/07/25 07:06:47;;;;;;;0.43;0.43;;;;;;;18.57;78.88;98631.44;5047365;28;20037;-63
2023/07/25 07:09:13;;;;;;;0.20;0.20;;;;;;;18.62;74.91;98641.63;5047291;28;20087;-63
2023/07/25 07:11:39;;;;;;;0.38;0.38;;;;;;;18.53;73.50;98633.44;5047577;28;20026;-62
2023/07/25 07:14:04;;;;;;;0.20;0.20;;;;;;;18.30;70.42;98627.16;5029613;28;20052;-63
2023/07/25 07:16:30;;;;;;;0.20;0.20;;;;;;;18.36;72.87;98639.03;5047306;28;20425;-62
2023/07/25 07:18:55;;;;;;;0.20;0.20;;;;;;;18.41;74.46;98644.81;5047556;28;20018;-64
2023/07/25 07:21:20;;;;;;;0.40;0.40;;;;;;;18.38;73.24;98648.50;5047074;28;20025;-63
2023/07/25 07:23:46;;;;;;;0.20;0.20;;;;;;;18.37;73.09;98638.09;5029376;28;20021;-63
2023/07/25 07:26:11;;;;;;;0.20;0.20;;;;;;;18.51;73.19;98637.13;5047435;28;20088;-63
2023/07/25 07:28:37;;;;;;;0.20;0.20;;;;;;;18.58;73.20;98652.34;5046932;28;20021;-63
2023/07/25 07:31:02;;;;;;;0.20;0.20;;;;;;;18.66;72.23;98657.06;5047449;28;20018;-63
2023/07/25 07:33:29;;;;;;;0.20;0.20;;;;;;;18.72;70.37;98654.97;5047493;28;20029;-64
2023/07/25 07:35:54;;;;;;;0.20;0.20;;;;;;;18.61;69.29;98655.72;5029217;28;20025;-63
2023/07/25 07:38:20;;;;;;;0.20;0.20;;;;;;;18.49;70.29;98652.16;5046832;28;20052;-64
2023/07/25 07:40:45;;;;;;;0.20;0.20;;;;;;;18.32;70.39;98651.53;5047265;28;20021;-63
2023/07/25 07:43:11;;;;;;;0.20;0.20;;;;;;;18.21;69.79;98660.16;5047140;28;20083;-62
2023/07/25 07:45:36;;;;;;;0.20;0.20;;;;;;;18.07;71.27;98647.94;5046829;28;20036;-63
2023/07/25 07:48:01;;;;;;;0.20;0.20;;;;;;;18.07;71.56;98658.44;5046787;28;20079;-64
2023/07/25 07:50:29;;;;;;;0.20;0.20;;;;;;;18.05;72.82;98662.97;5047072;28;20025;-63
2023/07/25 07:52:54;;;;;;;0.20;0.20;;;;;;;18.07;71.39;98667.16;5046870;28;20025;-64
2023/07/25 07:55:20;;;;;;;0.20;0.20;;;;;;;18.07;71.57;98677.66;5028664;28;20094;-64
2023/07/25 07:57:47;;;;;;;0.20;0.20;;;;;;;18.08;73.00;98674.06;5046995;28;20106;-64
2023/07/25 08:00:14;;;;;;;0.20;0.20;;;;;;;18.15;73.49;98681.56;5046596;28;20026;-62
2023/07/25 08:02:41;;;;;;;0.20;0.20;;;;;;;18.14;71.55;98670.25;5046106;28;20036;-62
2023/07/25 08:05:07;;;;;;;0.20;0.20;;;;;;;17.99;70.59;98661.56;5046576;28;20029;-63
2023/07/25 08:07:32;;;;;;;0.20;0.20;;;;;;;18.02;71.48;98687.63;5046562;28;20052;-63
2023/07/25 08:09:58;;;;;;;0.20;0.20;;;;;;;17.95;70.73;98681.13;5046445;28;20017;-63
2023/07/25 08:12:23;;;;;;;0.20;0.20;;;;;;;17.96;71.79;98694.13;5045949;28;20028;-63
2023/07/25 08:14:49;;;;;;;0.50;0.50;;;;;;;17.94;70.62;98682.03;5046665;28;20085;-63
2023/07/25 08:17:15;;;;;;;4.57;2.92;;;;;;;18.14;70.89;98686.00;5046363;28;20032;-63
2023/07/25 08:19:41;;;;;;;0.50;0.50;;;;;;;18.31;71.48;98694.50;5046002;28;20109;-62
2023/07/25 08:22:06;;;;;;;0.20;0.20;;;;;;;18.55;72.89;98699.88;5046054;28;20025;-63
2023/07/25 08:24:35;;;;;;;0.20;0.20;;;;;;;18.56;70.17;98691.03;5046585;28;20022;-63
2023/07/25 08:27:00;;;;;;;0.20;0.20;;;;;;;18.55;69.18;98693.75;5046314;28;20025;-63
2023/07/25 08:29:26;;;;;;;0.20;0.20;;;;;;;18.60;70.31;98691.66;5046189;28;20052;-64
2023/07/25 08:31:52;;;;;;;0.20;0.20;;;;;;;18.45;67.62;98701.47;5045315;28;20029;-63
2023/07/25 08:34:17;;;;;;;0.20;0.20;;;;;;;18.57;68.23;98697.97;5046261;28;20025;-64
2023/07/25 08:36:43;;;;;;;0.47;0.47;;;;;;;18.58;67.00;98689.13;5046239;28;20035;-63
2023/07/25 08:39:08;;;;;;;0.28;0.28;;;;;;;18.42;65.84;98689.34;5046002;28;20025;-63
2023/07/25 08:41:45;;;;;;;0.28;0.28;;;;;;;18.34;65.77;98699.53;5046007;28;20030;-62
2023/07/25 08:44:11;;;;;;;0.28;0.28;;;;;;;18.32;67.42;98697.03;5045846;28;20030;-63
2023/07/25 08:46:44;;;;;;;0.40;0.40;;;;;;;18.44;67.82;98703.25;5046004;28;20359;-63
2023/07/25 08:49:16;;;;;;;0.20;0.20;;;;;;;18.39;65.10;98683.47;5045687;28;20017;-64
2023/07/25 08:51:43;;;;;;;0.20;0.20;;;;;;;18.38;66.29;98694.94;5045911;28;20026;-63
2023/07/25 08:54:31;;;;;;;0.20;0.20;;;;;;;18.23;65.43;98699.47;5045590;28;20021;-63
2023/07/25 08:56:57;;;;;;;0.20;0.20;;;;;;;18.06;66.65;98690.91;5046063;28;20021;-64
2023/07/25 08:59:24;;;;;;;0.20;0.20;;;;;;;18.05;67.13;98700.53;5045792;28;20044;-62
2023/07/25 09:01:51;;;;;;;0.20;0.20;;;;;;;18.00;67.66;98702.66;5045629;28;20032;-63
2023/07/25 09:04:18;;;;;;;0.70;0.70;;;;;;;17.99;67.29;98705.41;5045760;28;20030;-63
2023/07/25 09:06:44;;;;;;;1.75;1.55;;;;;;;17.94;67.41;98695.16;5045704;28;20029;-64
2023/07/25 09:09:10;;;;;;;0.28;0.28;;;;;;;18.01;67.29;98706.97;5043983;28;20097;-63
2023/07/25 09:11:36;;;;;;;0.20;0.20;;;;;;;17.90;66.15;98704.19;5044307;28;20022;-63
2023/07/25 09:14:02;;;;;;;0.20;0.20;;;;;;;17.91;66.11;98705.88;5045570;28;20053;-63
2023/07/25 09:16:27;;;;;;;0.38;0.38;;;;;;;18.05;67.96;98704.97;5045673;28;20321;-62
2023/07/25 09:18:53;;;;;;;3.53;3.30;;;;;;;18.27;66.99;98700.91;5045442;28;20087;-63
2023/07/25 09:21:18;;;;;;;0.20;0.20;;;;;;;18.37;66.93;98709.03;5045486;28;20029;-63
2023/07/25 09:23:55;;;;;;;0.20;0.20;;;;;;;18.33;66.42;98711.84;5027203;28;20488;-63
2023/07/25 09:26:22;;;;;;;1.85;1.75;;;;;;;18.43;67.35;98700.72;5045553;28;20358;-64
2023/07/25 09:28:50;;;;;;;0.20;0.20;;;;;;;18.57;67.67;98703.22;5045281;28;20032;-63
2023/07/25 09:31:15;;;;;;;0.20;0.20;;;;;;;18.51;65.93;98703.66;5045209;28;20188;-63
2023/07/25 09:33:41;;;;;;;0.20;0.20;;;;;;;18.45;66.24;98704.91;5044980;28;20029;-63
2023/07/25 09:36:07;;;;;;;0.20;0.20;;;;;;;18.68;66.58;98714.78;5045290;28;20029;-64
2023/07/25 09:38:35;;;;;;;0.30;0.30;;;;;;;18.86;66.08;98706.56;5045138;28;20048;-63
2023/07/25 09:41:05;;;;;;;0.20;0.20;;;;;;;18.76;65.18;98711.59;5045178;28;20076;-62
2023/07/25 09:43:30;;;;;;;0.30;0.30;;;;;;;18.78;66.33;98710.56;5047067;28;20018;-63
2023/07/25 09:45:55;;;;;;;0.20;0.20;;;;;;;18.78;64.51;98718.47;5049205;28;20025;-63
2023/07/25 09:48:21;;;;;;;0.20;0.20;;;;;;;18.91;65.73;98728.09;5049008;28;20021;-64
2023/07/25 09:50:47;;;;;;;0.20;0.20;;;;;;;19.61;64.93;98715.28;5049143;28;20074;-63
2023/07/25 09:53:15;;;;;;;0.10;0.10;;;;;;;20.47;63.04;98719.47;5049002;28;20025;-64
2023/07/25 09:55:42;;;;;;;0.20;0.20;;;;;;;21.01;59.21;98717.09;5048856;28;20049;-67
2023/07/25 09:58:07;;;;;;;0.52;0.52;;;;;;;21.15;59.64;98728.38;5048906;28;20096;-64
2023/07/25 10:00:33;;;;;;;0.20;0.20;;;;;;;21.49;57.65;98716.88;5030801;28;20032;-62
2023/07/25 10:02:59;;;;;;;0.17;0.17;;;;;;;21.92;55.29;98726.56;5048528;28;20031;-63
2023/07/25 10:05:28;;;;;;;0.10;0.10;;;;;;;22.02;53.54;98687.03;5049171;28;20079;-63
2023/07/25 10:07:55;;;;;;;0.10;0.10;;;;;;;22.00;55.12;98723.28;5048896;28;20032;-63
2023/07/25 10:10:21;;;;;;;0.10;0.10;;;;;;;21.91;53.43;98713.50;5048965;28;20033;-63
2023/07/25 10:12:47;;;;;;;0.10;0.10;;;;;;;21.97;54.12;98734.13;5048814;28;20037;-63
2023/07/25 10:15:13;;;;;;;0.20;0.20;;;;;;;21.91;53.71;98740.75;5048658;28;20359;-63
2023/07/25 10:17:38;;;;;;;0.10;0.10;;;;;;;21.92;52.45;98754.78;5048657;28;20034;-63
2023/07/25 10:20:07;;;;;;;0.20;0.20;;;;;;;21.70;52.38;98748.63;5048662;28;20342;-64
2023/07/25 10:22:39;;;;;;;0.20;0.20;;;;;;;21.38;53.10;98759.97;5048108;28;20120;-63
2023/07/25 10:25:17;;;;;;;0.10;0.10;;;;;;;21.16;52.91;98745.88;5048710;28;20497;-63
2023/07/25 10:27:42;;;;;;;0.85;0.75;;;;;;;20.90;53.41;98748.72;5048398;28;20041;-63
2023/07/25 10:30:27;;;;;;;0.20;0.20;;;;;;;20.56;53.77;98762.72;5048612;28;20022;-63
2023/07/25 10:32:56;;;;;;;0.20;0.20;;;;;;;20.20;55.40;98762.78;5048625;28;20021;-63
2023/07/25 10:35:41;;;;;;;0.20;0.20;;;;;;;19.91;54.47;98771.03;5047290;28;20049;-63
2023/07/25 10:38:09;;;;;;;0.20;0.20;;;;;;;19.51;55.81;98756.38;5048091;28;20478;-63
2023/07/25 10:40:53;;;;;;;0.77;0.77;;;;;;;20.08;56.23;98763.72;5047194;28;20067;-63
2023/07/25 10:43:20;;;;;;;0.20;0.20;;;;;;;21.32;55.22;98765.75;5048366;28;20032;-64
2023/07/25 10:45:49;;;;;;;0.20;0.20;;;;;;;22.22;52.14;98763.75;5048277;28;20032;-63
2023/07/25 10:48:28;;;;;;;0.10;0.10;;;;;;;22.09;50.61;98776.34;5048162;28;20031;-63
2023/07/25 10:50:54;;;;;;;0.20;0.20;;;;;;;22.13;51.95;98775.09;5048224;28;20051;-64
2023/07/25 10:53:21;;;;;;;0.20;0.20;;;;;;;22.09;50.47;98776.34;5047808;28;20041;-62
2023/07/25 10:56:05;;;;;;;0.10;0.10;;;;;;;21.39;49.92;98772.22;5047499;28;20457;-64
2023/07/25 10:58:38;;;;;;;0.20;0.20;;;;;;;20.76;51.81;98774.41;5048082;28;20025;-63
2023/07/25 11:01:04;;;;;;;0.20;0.20;;;;;;;20.95;51.99;98787.97;5048055;28;20087;-62
2023/07/25 11:03:30;;;;;;;0.10;0.10;;;;;;;21.38;52.77;98787.22;5047802;28;20021;-64
2023/07/25 11:06:08;;;;;;;0.20;0.20;;;;;;;21.73;51.61;98787.97;5046447;28;20048;-63
2023/07/25 11:08:34;;;;;;;0.20;0.20;;;;;;;21.50;49.66;98784.56;5047708;28;20026;-63
2023/07/25 11:11:04;;;;;;;0.20;0.20;;;;;;;21.19;51.39;98793.13;5047630;28;20034;-63
2023/07/25 11:13:32;;;;;;;0.20;0.20;;;;;;;21.12;51.36;98781.38;5047283;28;20076;-63
2023/07/25 11:16:01;;;;;;;0.20;0.20;;;;;;;21.17;51.42;98801.16;5047875;28;20025;-63
2023/07/25 11:18:26;;;;;;;0.20;0.20;;;;;;;21.00;51.77;98784.03;5047539;28;20120;-63
2023/07/25 11:20:59;;;;;;;0.20;0.20;;;;;;;20.76;51.70;98779.66;5047412;28;20021;-64
2023/07/25 11:23:25;;;;;;;0.10;0.10;;;;;;;20.77;52.80;98783.13;5047223;28;20021;-63
2023/07/25 11:25:54;;;;;;;1.85;1.75;;;;;;;20.82;52.19;98780.97;5047483;28;20029;-63
2023/07/25 11:28:23;;;;;;;0.93;0.60;;;;;;;20.75;52.29;98791.16;5029702;28;20105;-63
2023/07/25 11:30:51;;;;;;;0.30;0.30;;;;;;;20.75;51.49;98788.53;5047178;28;20543;-64